sensor_id;sensor_type;location;lat;lon;timestamp;P1;durP1;ratioP1;P2;durP2;ratioP2
74243;SDS011;62600;55.732;37.662;2022-08-30T00:01:09;13.35;;;6.45;;
74243;SDS011;62600;55.732;37.662;2022-08-30T00:03:38;14.02;;;6.25;;
74243;SDS011;62600;55.732;37.662;2022-08-30T00:06:07;14.98;;;6.40;;
74243;SDS011;62600;55.732;37.662;2022-08-30T00:08:34;10.13;;;6.10;;
74243;SDS011;62600;55.732;37.662;2022-08-30T00:11:01;14.95;;;6.57;;
74243;SDS011;62600;55.732;37.662;2022-08-30T00:13:28;14.25;;;7.22;;
74243;SDS011;62600;55.732;37.662;2022-08-30T00:15:54;11.43;;;6.13;;
74243;SDS011;62600;55.732;37.662;2022-08-30T00:18:20;12.32;;;6.75;;
74243;SDS011;62600;55.732;37.662;2022-08-30T00:20:46;16.58;;;7.03;;
74243;SDS011;62600;55.732;37.662;2022-08-30T00:23:13;12.88;;;6.25;;
74243;SDS011;62600;55.732;37.662;2022-08-30T00:25:39;11.75;;;6.90;;
74243;SDS011;62600;55.732;37.662;2022-08-30T00:28:06;16.58;;;7.20;;
74243;SDS011;62600;55.732;37.662;2022-08-30T00:30:31;14.45;;;6.65;;
74243;SDS011;62600;55.732;37.662;2022-08-30T00:32:57;14.05;;;6.65;;
74243;SDS011;62600;55.732;37.662;2022-08-30T00:35:23;12.38;;;6.70;;
74243;SDS011;62600;55.732;37.662;2022-08-30T00:37:49;10.32;;;6.90;;
74243;SDS011;62600;55.732;37.662;2022-08-30T00:40:15;11.75;;;7.15;;
74243;SDS011;62600;55.732;37.662;2022-08-30T00:42:43;11.80;;;7.20;;
74243;SDS011;62600;55.732;37.662;2022-08-30T00:45:15;10.52;;;6.97;;
74243;SDS011;62600;55.732;37.662;2022-08-30T00:47:44;15.75;;;7.10;;
74243;SDS011;62600;55.732;37.662;2022-08-30T00:50:10;16.35;;;7.20;;
74243;SDS011;62600;55.732;37.662;2022-08-30T00:52:38;11.63;;;6.82;;
74243;SDS011;62600;55.732;37.662;2022-08-30T00:55:07;13.25;;;7.00;;
74243;SDS011;62600;55.732;37.662;2022-08-30T00:57:33;13.73;;;6.75;;
74243;SDS011;62600;55.732;37.662;2022-08-30T01:00:00;13.70;;;8.00;;
74243;SDS011;62600;55.732;37.662;2022-08-30T01:02:29;16.13;;;7.82;;
74243;SDS011;62600;55.732;37.662;2022-08-30T01:04:55;11.65;;;7.55;;
74243;SDS011;62600;55.732;37.662;2022-08-30T01:07:22;15.85;;;8.05;;
74243;SDS011;62600;55.732;37.662;2022-08-30T01:09:48;10.57;;;6.70;;
74243;SDS011;62600;55.732;37.662;2022-08-30T01:12:14;15.65;;;6.93;;
74243;SDS011;62600;55.732;37.662;2022-08-30T01:14:40;12.55;;;6.70;;
74243;SDS011;62600;55.732;37.662;2022-08-30T01:17:05;12.18;;;7.25;;
74243;SDS011;62600;55.732;37.662;2022-08-30T01:22:14;13.60;;;7.40;;
74243;SDS011;62600;55.732;37.662;2022-08-30T01:24:42;12.98;;;6.82;;
74243;SDS011;62600;55.732;37.662;2022-08-30T01:27:13;12.77;;;7.15;;
74243;SDS011;62600;55.732;37.662;2022-08-30T01:29:40;12.70;;;6.72;;
74243;SDS011;62600;55.732;37.662;2022-08-30T01:32:14;15.85;;;7.35;;
74243;SDS011;62600;55.732;37.662;2022-08-30T01:34:42;12.07;;;7.07;;
74243;SDS011;62600;55.732;37.662;2022-08-30T01:37:13;13.73;;;6.88;;
74243;SDS011;62600;55.732;37.662;2022-08-30T01:39:40;15.27;;;7.25;;
74243;SDS011;62600;55.732;37.662;2022-08-30T01:42:07;15.10;;;6.82;;
74243;SDS011;62600;55.732;37.662;2022-08-30T01:44:32;16.20;;;7.32;;
74243;SDS011;62600;55.732;37.662;2022-08-30T01:46:58;12.18;;;7.68;;
74243;SDS011;62600;55.732;37.662;2022-08-30T01:49:23;12.85;;;6.95;;
74243;SDS011;62600;55.732;37.662;2022-08-30T01:51:49;15.00;;;8.77;;
74243;SDS011;62600;55.732;37.662;2022-08-30T01:54:14;11.75;;;7.10;;
74243;SDS011;62600;55.732;37.662;2022-08-30T01:56:40;11.82;;;7.65;;
74243;SDS011;62600;55.732;37.662;2022-08-30T01:59:05;11.68;;;6.95;;
74243;SDS011;62600;55.732;37.662;2022-08-30T02:01:32;12.57;;;7.47;;
74243;SDS011;62600;55.732;37.662;2022-08-30T02:04:00;18.73;;;7.18;;
74243;SDS011;62600;55.732;37.662;2022-08-30T02:06:27;16.20;;;6.90;;
74243;SDS011;62600;55.732;37.662;2022-08-30T02:08:53;13.10;;;6.95;;
74243;SDS011;62600;55.732;37.662;2022-08-30T02:11:18;15.85;;;7.80;;
74243;SDS011;62600;55.732;37.662;2022-08-30T02:13:44;15.05;;;7.50;;
74243;SDS011;62600;55.732;37.662;2022-08-30T02:16:11;12.85;;;7.43;;
74243;SDS011;62600;55.732;37.662;2022-08-30T02:18:40;15.68;;;7.00;;
74243;SDS011;62600;55.732;37.662;2022-08-30T02:21:06;12.38;;;7.32;;
74243;SDS011;62600;55.732;37.662;2022-08-30T02:23:32;13.27;;;7.47;;
74243;SDS011;62600;55.732;37.662;2022-08-30T02:28:24;17.52;;;9.07;;
74243;SDS011;62600;55.732;37.662;2022-08-30T02:30:50;15.45;;;7.82;;
74243;SDS011;62600;55.732;37.662;2022-08-30T02:33:16;12.60;;;7.43;;
74243;SDS011;62600;55.732;37.662;2022-08-30T02:35:42;11.10;;;6.85;;
74243;SDS011;62600;55.732;37.662;2022-08-30T02:38:08;16.38;;;8.23;;
74243;SDS011;62600;55.732;37.662;2022-08-30T02:42:59;13.97;;;7.07;;
74243;SDS011;62600;55.732;37.662;2022-08-30T02:45:25;13.07;;;7.95;;
74243;SDS011;62600;55.732;37.662;2022-08-30T02:47:51;15.10;;;8.50;;
74243;SDS011;62600;55.732;37.662;2022-08-30T02:50:17;14.65;;;7.45;;
74243;SDS011;62600;55.732;37.662;2022-08-30T02:52:43;16.13;;;7.65;;
74243;SDS011;62600;55.732;37.662;2022-08-30T02:55:09;14.23;;;7.22;;
74243;SDS011;62600;55.732;37.662;2022-08-30T02:57:35;12.88;;;7.30;;
74243;SDS011;62600;55.732;37.662;2022-08-30T03:00:04;12.80;;;8.13;;
74243;SDS011;62600;55.732;37.662;2022-08-30T03:02:31;14.65;;;7.45;;
74243;SDS011;62600;55.732;37.662;2022-08-30T03:04:57;14.25;;;7.50;;
74243;SDS011;62600;55.732;37.662;2022-08-30T03:07:22;15.30;;;8.45;;
74243;SDS011;62600;55.732;37.662;2022-08-30T03:09:48;13.23;;;7.85;;
74243;SDS011;62600;55.732;37.662;2022-08-30T03:12:13;12.80;;;7.72;;
74243;SDS011;62600;55.732;37.662;2022-08-30T03:14:39;13.32;;;8.75;;
74243;SDS011;62600;55.732;37.662;2022-08-30T03:17:05;15.30;;;8.13;;
74243;SDS011;62600;55.732;37.662;2022-08-30T03:19:32;12.43;;;6.82;;
74243;SDS011;62600;55.732;37.662;2022-08-30T03:22:00;13.50;;;7.97;;
74243;SDS011;62600;55.732;37.662;2022-08-30T03:24:27;14.48;;;7.45;;
74243;SDS011;62600;55.732;37.662;2022-08-30T03:26:52;14.65;;;8.05;;
74243;SDS011;62600;55.732;37.662;2022-08-30T03:29:17;16.30;;;9.20;;
74243;SDS011;62600;55.732;37.662;2022-08-30T03:31:43;15.95;;;8.65;;
74243;SDS011;62600;55.732;37.662;2022-08-30T03:34:09;12.73;;;6.85;;
74243;SDS011;62600;55.732;37.662;2022-08-30T03:36:35;13.35;;;8.13;;
74243;SDS011;62600;55.732;37.662;2022-08-30T03:39:04;13.90;;;7.80;;
74243;SDS011;62600;55.732;37.662;2022-08-30T03:41:31;14.73;;;8.05;;
74243;SDS011;62600;55.732;37.662;2022-08-30T03:43:57;14.50;;;7.80;;
74243;SDS011;62600;55.732;37.662;2022-08-30T03:46:23;14.30;;;8.30;;
74243;SDS011;62600;55.732;37.662;2022-08-30T03:48:49;14.70;;;8.18;;
74243;SDS011;62600;55.732;37.662;2022-08-30T03:51:16;12.20;;;8.50;;
74243;SDS011;62600;55.732;37.662;2022-08-30T03:53:42;14.48;;;8.23;;
74243;SDS011;62600;55.732;37.662;2022-08-30T03:56:07;14.82;;;7.78;;
74243;SDS011;62600;55.732;37.662;2022-08-30T03:58:33;13.35;;;8.95;;
74243;SDS011;62600;55.732;37.662;2022-08-30T04:00:59;15.57;;;8.85;;
74243;SDS011;62600;55.732;37.662;2022-08-30T04:03:24;11.70;;;8.13;;
74243;SDS011;62600;55.732;37.662;2022-08-30T04:05:53;16.52;;;8.23;;
74243;SDS011;62600;55.732;37.662;2022-08-30T04:08:20;13.95;;;8.90;;
74243;SDS011;62600;55.732;37.662;2022-08-30T04:13:15;13.02;;;8.27;;
74243;SDS011;62600;55.732;37.662;2022-08-30T04:15:40;14.00;;;9.65;;
74243;SDS011;62600;55.732;37.662;2022-08-30T04:18:06;15.00;;;9.25;;
74243;SDS011;62600;55.732;37.662;2022-08-30T04:20:31;13.95;;;9.02;;
74243;SDS011;62600;55.732;37.662;2022-08-30T04:22:58;12.57;;;8.65;;
74243;SDS011;62600;55.732;37.662;2022-08-30T04:25:23;12.80;;;9.40;;
74243;SDS011;62600;55.732;37.662;2022-08-30T04:27:49;15.38;;;9.45;;
74243;SDS011;62600;55.732;37.662;2022-08-30T04:30:15;12.65;;;9.27;;
74243;SDS011;62600;55.732;37.662;2022-08-30T04:32:42;14.93;;;9.85;;
74243;SDS011;62600;55.732;37.662;2022-08-30T04:37:34;15.45;;;10.05;;
74243;SDS011;62600;55.732;37.662;2022-08-30T04:40:02;17.33;;;10.20;;
74243;SDS011;62600;55.732;37.662;2022-08-30T04:42:30;16.08;;;10.40;;
74243;SDS011;62600;55.732;37.662;2022-08-30T04:44:57;15.38;;;9.80;;
74243;SDS011;62600;55.732;37.662;2022-08-30T04:47:25;15.05;;;10.00;;
74243;SDS011;62600;55.732;37.662;2022-08-30T04:49:51;16.15;;;9.82;;
74243;SDS011;62600;55.732;37.662;2022-08-30T04:52:17;15.85;;;10.20;;
74243;SDS011;62600;55.732;37.662;2022-08-30T04:54:42;16.80;;;11.05;;
74243;SDS011;62600;55.732;37.662;2022-08-30T04:57:08;17.90;;;11.32;;
74243;SDS011;62600;55.732;37.662;2022-08-30T04:59:33;17.10;;;11.32;;
74243;SDS011;62600;55.732;37.662;2022-08-30T05:01:59;17.40;;;11.80;;
74243;SDS011;62600;55.732;37.662;2022-08-30T05:04:24;19.58;;;12.13;;
74243;SDS011;62600;55.732;37.662;2022-08-30T05:06:50;18.63;;;11.73;;
74243;SDS011;62600;55.732;37.662;2022-08-30T05:09:17;15.50;;;11.52;;
74243;SDS011;62600;55.732;37.662;2022-08-30T05:11:43;15.95;;;10.57;;
74243;SDS011;62600;55.732;37.662;2022-08-30T05:14:09;15.52;;;11.18;;
74243;SDS011;62600;55.732;37.662;2022-08-30T05:16:34;15.32;;;11.65;;
74243;SDS011;62600;55.732;37.662;2022-08-30T05:19:00;15.80;;;11.82;;
74243;SDS011;62600;55.732;37.662;2022-08-30T05:21:26;17.63;;;11.32;;
74243;SDS011;62600;55.732;37.662;2022-08-30T05:23:53;20.92;;;12.88;;
74243;SDS011;62600;55.732;37.662;2022-08-30T05:26:22;17.17;;;12.07;;
74243;SDS011;62600;55.732;37.662;2022-08-30T05:28:51;21.88;;;12.60;;
74243;SDS011;62600;55.732;37.662;2022-08-30T05:33:44;16.67;;;12.00;;
74243;SDS011;62600;55.732;37.662;2022-08-30T05:36:11;20.27;;;11.93;;
74243;SDS011;62600;55.732;37.662;2022-08-30T05:38:37;17.25;;;12.10;;
74243;SDS011;62600;55.732;37.662;2022-08-30T05:41:03;19.38;;;11.68;;
74243;SDS011;62600;55.732;37.662;2022-08-30T05:46:01;16.33;;;12.77;;
74243;SDS011;62600;55.732;37.662;2022-08-30T05:48:32;17.25;;;12.02;;
74243;SDS011;62600;55.732;37.662;2022-08-30T05:51:06;18.58;;;13.30;;
74243;SDS011;62600;55.732;37.662;2022-08-30T05:53:37;18.50;;;12.32;;
74243;SDS011;62600;55.732;37.662;2022-08-30T05:56:05;20.02;;;11.85;;
74243;SDS011;62600;55.732;37.662;2022-08-30T05:58:32;18.15;;;12.15;;
74243;SDS011;62600;55.732;37.662;2022-08-30T06:00:58;18.45;;;11.82;;
74243;SDS011;62600;55.732;37.662;2022-08-30T06:05:50;17.33;;;12.65;;
74243;SDS011;62600;55.732;37.662;2022-08-30T06:10:41;16.83;;;12.88;;
74243;SDS011;62600;55.732;37.662;2022-08-30T06:15:32;16.43;;;12.30;;
74243;SDS011;62600;55.732;37.662;2022-08-30T06:20:23;17.87;;;13.10;;
74243;SDS011;62600;55.732;37.662;2022-08-30T06:25:14;22.65;;;14.00;;
74243;SDS011;62600;55.732;37.662;2022-08-30T06:30:06;19.23;;;12.63;;
74243;SDS011;62600;55.732;37.662;2022-08-30T06:32:35;19.85;;;12.80;;
74243;SDS011;62600;55.732;37.662;2022-08-30T06:35:01;17.33;;;13.07;;
74243;SDS011;62600;55.732;37.662;2022-08-30T06:37:27;16.98;;;13.00;;
74243;SDS011;62600;55.732;37.662;2022-08-30T06:42:18;16.60;;;12.52;;
74243;SDS011;62600;55.732;37.662;2022-08-30T06:47:09;17.80;;;13.73;;
74243;SDS011;62600;55.732;37.662;2022-08-30T06:52:00;16.50;;;14.00;;
74243;SDS011;62600;55.732;37.662;2022-08-30T06:56:51;16.25;;;11.82;;
74243;SDS011;62600;55.732;37.662;2022-08-30T07:01:43;15.40;;;12.27;;
74243;SDS011;62600;55.732;37.662;2022-08-30T07:06:33;15.90;;;11.67;;
74243;SDS011;62600;55.732;37.662;2022-08-30T07:11:34;16.88;;;13.70;;
74243;SDS011;62600;55.732;37.662;2022-08-30T07:14:01;16.15;;;13.27;;
74243;SDS011;62600;55.732;37.662;2022-08-30T07:16:28;15.38;;;11.75;;
74243;SDS011;62600;55.732;37.662;2022-08-30T07:21:41;15.90;;;12.40;;
74243;SDS011;62600;55.732;37.662;2022-08-30T07:26:40;17.92;;;13.50;;
74243;SDS011;62600;55.732;37.662;2022-08-30T07:29:10;18.35;;;13.10;;
74243;SDS011;62600;55.732;37.662;2022-08-30T07:31:36;15.13;;;12.38;;
74243;SDS011;62600;55.732;37.662;2022-08-30T07:34:03;16.67;;;11.90;;
74243;SDS011;62600;55.732;37.662;2022-08-30T07:36:29;18.35;;;12.38;;
74243;SDS011;62600;55.732;37.662;2022-08-30T07:38:55;14.80;;;12.88;;
74243;SDS011;62600;55.732;37.662;2022-08-30T07:41:28;23.85;;;15.48;;
74243;SDS011;62600;55.732;37.662;2022-08-30T07:43:56;15.65;;;13.68;;
74243;SDS011;62600;55.732;37.662;2022-08-30T07:46:21;16.77;;;12.18;;
74243;SDS011;62600;55.732;37.662;2022-08-30T07:48:48;15.73;;;12.93;;
74243;SDS011;62600;55.732;37.662;2022-08-30T07:51:15;16.80;;;12.95;;
74243;SDS011;62600;55.732;37.662;2022-08-30T07:53:42;13.43;;;12.07;;
74243;SDS011;62600;55.732;37.662;2022-08-30T07:56:08;18.60;;;13.43;;
74243;SDS011;62600;55.732;37.662;2022-08-30T07:58:34;19.13;;;13.00;;
74243;SDS011;62600;55.732;37.662;2022-08-30T08:01:03;18.50;;;12.68;;
74243;SDS011;62600;55.732;37.662;2022-08-30T08:03:30;17.70;;;12.18;;
74243;SDS011;62600;55.732;37.662;2022-08-30T08:05:55;19.98;;;13.10;;
74243;SDS011;62600;55.732;37.662;2022-08-30T08:08:22;17.17;;;13.02;;
74243;SDS011;62600;55.732;37.662;2022-08-30T08:10:47;18.52;;;13.07;;
74243;SDS011;62600;55.732;37.662;2022-08-30T08:13:13;17.23;;;12.75;;
74243;SDS011;62600;55.732;37.662;2022-08-30T08:15:39;17.27;;;13.52;;
74243;SDS011;62600;55.732;37.662;2022-08-30T08:18:04;18.80;;;13.30;;
74243;SDS011;62600;55.732;37.662;2022-08-30T08:20:30;16.23;;;12.80;;
74243;SDS011;62600;55.732;37.662;2022-08-30T08:22:57;15.90;;;13.05;;
74243;SDS011;62600;55.732;37.662;2022-08-30T08:25:23;16.88;;;12.23;;
74243;SDS011;62600;55.732;37.662;2022-08-30T08:27:49;15.77;;;13.10;;
74243;SDS011;62600;55.732;37.662;2022-08-30T08:30:16;16.02;;;12.00;;
74243;SDS011;62600;55.732;37.662;2022-08-30T08:32:43;14.80;;;12.60;;
74243;SDS011;62600;55.732;37.662;2022-08-30T08:35:09;18.40;;;12.52;;
74243;SDS011;62600;55.732;37.662;2022-08-30T08:37:35;17.50;;;12.27;;
74243;SDS011;62600;55.732;37.662;2022-08-30T08:40:02;18.92;;;12.50;;
74243;SDS011;62600;55.732;37.662;2022-08-30T08:51:03;16.08;;;11.32;;
74243;SDS011;62600;55.732;37.662;2022-08-30T08:54:11;18.27;;;12.02;;
74243;SDS011;62600;55.732;37.662;2022-08-30T08:56:38;14.90;;;12.13;;
74243;SDS011;62600;55.732;37.662;2022-08-30T08:59:04;13.90;;;11.52;;
74243;SDS011;62600;55.732;37.662;2022-08-30T09:01:33;18.17;;;12.48;;
74243;SDS011;62600;55.732;37.662;2022-08-30T09:04:02;14.82;;;11.75;;
74243;SDS011;62600;55.732;37.662;2022-08-30T09:09:15;14.00;;;11.70;;
74243;SDS011;62600;55.732;37.662;2022-08-30T09:11:45;22.60;;;11.95;;
74243;SDS011;62600;55.732;37.662;2022-08-30T09:14:13;27.85;;;12.20;;
74243;SDS011;62600;55.732;37.662;2022-08-30T09:16:44;17.90;;;11.82;;
74243;SDS011;62600;55.732;37.662;2022-08-30T09:22:24;16.23;;;10.73;;
74243;SDS011;62600;55.732;37.662;2022-08-30T09:25:03;13.63;;;10.07;;
74243;SDS011;62600;55.732;37.662;2022-08-30T09:27:36;18.73;;;10.93;;
74243;SDS011;62600;55.732;37.662;2022-08-30T09:32:34;17.83;;;11.15;;
74243;SDS011;62600;55.732;37.662;2022-08-30T09:35:04;17.10;;;11.52;;
74243;SDS011;62600;55.732;37.662;2022-08-30T09:40:39;23.83;;;12.57;;
74243;SDS011;62600;55.732;37.662;2022-08-30T09:43:19;17.10;;;11.80;;
74243;SDS011;62600;55.732;37.662;2022-08-30T09:53:37;17.63;;;12.60;;
74243;SDS011;62600;55.732;37.662;2022-08-30T09:56:17;18.15;;;12.18;;
74243;SDS011;62600;55.732;37.662;2022-08-30T10:01:49;16.92;;;13.85;;
74243;SDS011;62600;55.732;37.662;2022-08-30T10:07:09;19.50;;;14.30;;
74243;SDS011;62600;55.732;37.662;2022-08-30T10:12:58;17.05;;;14.25;;
74243;SDS011;62600;55.732;37.662;2022-08-30T10:21:07;23.63;;;16.25;;
74243;SDS011;62600;55.732;37.662;2022-08-30T10:23:40;20.02;;;14.18;;
74243;SDS011;62600;55.732;37.662;2022-08-30T10:29:09;19.20;;;14.63;;
74243;SDS011;62600;55.732;37.662;2022-08-30T10:34:23;16.25;;;13.35;;
74243;SDS011;62600;55.732;37.662;2022-08-30T10:36:53;18.33;;;14.05;;
74243;SDS011;62600;55.732;37.662;2022-08-30T10:39:25;20.48;;;14.60;;
74243;SDS011;62600;55.732;37.662;2022-08-30T10:41:58;17.35;;;14.70;;
74243;SDS011;62600;55.732;37.662;2022-08-30T10:44:38;22.92;;;15.52;;
74243;SDS011;62600;55.732;37.662;2022-08-30T10:55:50;20.73;;;16.20;;
74243;SDS011;62600;55.732;37.662;2022-08-30T10:58:21;19.95;;;14.55;;
74243;SDS011;62600;55.732;37.662;2022-08-30T11:09:12;18.77;;;14.45;;
74243;SDS011;62600;55.732;37.662;2022-08-30T11:14:14;22.27;;;15.82;;
74243;SDS011;62600;55.732;37.662;2022-08-30T11:16:44;22.88;;;16.40;;
74243;SDS011;62600;55.732;37.662;2022-08-30T11:19:58;17.23;;;14.25;;
74243;SDS011;62600;55.732;37.662;2022-08-30T11:38:12;20.33;;;14.77;;
74243;SDS011;62600;55.732;37.662;2022-08-30T11:56:32;19.77;;;13.18;;
74243;SDS011;62600;55.732;37.662;2022-08-30T12:02:42;16.55;;;11.27;;
74243;SDS011;62600;55.732;37.662;2022-08-30T12:05:43;18.52;;;10.90;;
74243;SDS011;62600;55.732;37.662;2022-08-30T12:16:00;16.80;;;12.38;;
74243;SDS011;62600;55.732;37.662;2022-08-30T12:18:29;16.17;;;11.65;;
74243;SDS011;62600;55.732;37.662;2022-08-30T12:21:03;16.92;;;11.63;;
74243;SDS011;62600;55.732;37.662;2022-08-30T12:26:08;18.15;;;13.43;;
74243;SDS011;62600;55.732;37.662;2022-08-30T12:28:34;16.27;;;12.98;;
74243;SDS011;62600;55.732;37.662;2022-08-30T12:31:07;19.65;;;12.32;;
74243;SDS011;62600;55.732;37.662;2022-08-30T12:33:44;15.93;;;12.73;;
74243;SDS011;62600;55.732;37.662;2022-08-30T12:36:12;20.35;;;14.88;;
74243;SDS011;62600;55.732;37.662;2022-08-30T12:38:41;17.95;;;13.75;;
74243;SDS011;62600;55.732;37.662;2022-08-30T12:41:06;18.45;;;13.68;;
74243;SDS011;62600;55.732;37.662;2022-08-30T12:46:01;18.60;;;13.45;;
74243;SDS011;62600;55.732;37.662;2022-08-30T12:48:34;18.08;;;13.88;;
74243;SDS011;62600;55.732;37.662;2022-08-30T12:51:04;20.85;;;14.80;;
74243;SDS011;62600;55.732;37.662;2022-08-30T12:53:38;20.95;;;14.27;;
74243;SDS011;62600;55.732;37.662;2022-08-30T12:56:15;17.80;;;12.23;;
74243;SDS011;62600;55.732;37.662;2022-08-30T13:04:02;15.90;;;12.10;;
74243;SDS011;62600;55.732;37.662;2022-08-30T13:09:37;22.50;;;14.45;;
74243;SDS011;62600;55.732;37.662;2022-08-30T13:12:06;22.45;;;14.02;;
74243;SDS011;62600;55.732;37.662;2022-08-30T13:19:39;21.15;;;15.10;;
74243;SDS011;62600;55.732;37.662;2022-08-30T13:22:22;17.42;;;13.43;;
74243;SDS011;62600;55.732;37.662;2022-08-30T13:24:50;18.98;;;13.48;;
74243;SDS011;62600;55.732;37.662;2022-08-30T13:27:16;20.02;;;14.35;;
74243;SDS011;62600;55.732;37.662;2022-08-30T13:29:42;19.35;;;14.23;;
74243;SDS011;62600;55.732;37.662;2022-08-30T13:32:08;20.77;;;14.95;;
74243;SDS011;62600;55.732;37.662;2022-08-30T13:34:34;19.30;;;14.55;;
74243;SDS011;62600;55.732;37.662;2022-08-30T13:37:00;21.75;;;14.52;;
74243;SDS011;62600;55.732;37.662;2022-08-30T13:39:27;19.90;;;14.82;;
74243;SDS011;62600;55.732;37.662;2022-08-30T13:41:53;18.83;;;13.38;;
74243;SDS011;62600;55.732;37.662;2022-08-30T13:44:19;20.42;;;13.63;;
74243;SDS011;62600;55.732;37.662;2022-08-30T13:46:48;17.58;;;14.27;;
74243;SDS011;62600;55.732;37.662;2022-08-30T13:49:21;18.52;;;15.50;;
74243;SDS011;62600;55.732;37.662;2022-08-30T13:51:49;21.50;;;16.30;;
74243;SDS011;62600;55.732;37.662;2022-08-30T13:54:17;19.02;;;13.50;;
74243;SDS011;62600;55.732;37.662;2022-08-30T13:56:50;16.48;;;12.63;;
74243;SDS011;62600;55.732;37.662;2022-08-30T13:59:16;19.08;;;13.65;;
74243;SDS011;62600;55.732;37.662;2022-08-30T14:01:42;22.33;;;15.10;;
74243;SDS011;62600;55.732;37.662;2022-08-30T14:04:08;26.70;;;19.83;;
74243;SDS011;62600;55.732;37.662;2022-08-30T14:06:34;18.70;;;13.75;;
74243;SDS011;62600;55.732;37.662;2022-08-30T14:08:59;24.73;;;19.50;;
74243;SDS011;62600;55.732;37.662;2022-08-30T14:11:25;24.65;;;12.93;;
74243;SDS011;62600;55.732;37.662;2022-08-30T14:13:51;17.42;;;13.40;;
74243;SDS011;62600;55.732;37.662;2022-08-30T14:16:16;15.20;;;10.13;;
74243;SDS011;62600;55.732;37.662;2022-08-30T14:18:42;14.20;;;9.00;;
74243;SDS011;62600;55.732;37.662;2022-08-30T14:21:08;11.95;;;7.88;;
74243;SDS011;62600;55.732;37.662;2022-08-30T14:23:33;16.45;;;9.27;;
74243;SDS011;62600;55.732;37.662;2022-08-30T14:25:59;18.88;;;10.48;;
74243;SDS011;62600;55.732;37.662;2022-08-30T14:28:27;11.85;;;7.88;;
74243;SDS011;62600;55.732;37.662;2022-08-30T14:30:54;15.63;;;8.45;;
74243;SDS011;62600;55.732;37.662;2022-08-30T14:33:20;14.15;;;9.20;;
74243;SDS011;62600;55.732;37.662;2022-08-30T14:35:45;14.30;;;9.63;;
74243;SDS011;62600;55.732;37.662;2022-08-30T14:38:12;18.50;;;8.93;;
74243;SDS011;62600;55.732;37.662;2022-08-30T14:40:38;15.18;;;8.60;;
74243;SDS011;62600;55.732;37.662;2022-08-30T14:43:04;17.45;;;8.35;;
74243;SDS011;62600;55.732;37.662;2022-08-30T14:47:56;10.57;;;7.07;;
74243;SDS011;62600;55.732;37.662;2022-08-30T14:50:21;17.27;;;9.85;;
74243;SDS011;62600;55.732;37.662;2022-08-30T14:52:47;20.88;;;6.88;;
74243;SDS011;62600;55.732;37.662;2022-08-30T14:55:13;21.13;;;7.82;;
74243;SDS011;62600;55.732;37.662;2022-08-30T14:57:39;18.90;;;8.60;;
74243;SDS011;62600;55.732;37.662;2022-08-30T15:00:06;14.30;;;6.15;;
74243;SDS011;62600;55.732;37.662;2022-08-30T15:02:33;12.35;;;6.00;;
74243;SDS011;62600;55.732;37.662;2022-08-30T15:04:59;13.88;;;6.07;;
74243;SDS011;62600;55.732;37.662;2022-08-30T15:07:24;12.77;;;6.13;;
74243;SDS011;62600;55.732;37.662;2022-08-30T15:09:50;12.45;;;6.00;;
74243;SDS011;62600;55.732;37.662;2022-08-30T15:12:15;13.27;;;6.40;;
74243;SDS011;62600;55.732;37.662;2022-08-30T15:14:41;14.85;;;5.95;;
74243;SDS011;62600;55.732;37.662;2022-08-30T15:17:06;17.30;;;7.88;;
74243;SDS011;62600;55.732;37.662;2022-08-30T15:19:32;16.63;;;8.45;;
74243;SDS011;62600;55.732;37.662;2022-08-30T15:22:00;14.50;;;8.73;;
74243;SDS011;62600;55.732;37.662;2022-08-30T15:24:29;17.67;;;6.60;;
74243;SDS011;62600;55.732;37.662;2022-08-30T15:26:56;13.32;;;6.28;;
74243;SDS011;62600;55.732;37.662;2022-08-30T15:29:23;16.25;;;5.93;;
74243;SDS011;62600;55.732;37.662;2022-08-30T15:31:48;20.33;;;6.22;;
74243;SDS011;62600;55.732;37.662;2022-08-30T15:34:15;12.90;;;5.57;;
74243;SDS011;62600;55.732;37.662;2022-08-30T15:36:42;12.55;;;5.85;;
74243;SDS011;62600;55.732;37.662;2022-08-30T15:39:09;16.08;;;5.70;;
74243;SDS011;62600;55.732;37.662;2022-08-30T15:41:35;17.92;;;6.32;;
74243;SDS011;62600;55.732;37.662;2022-08-30T15:44:01;16.67;;;9.00;;
74243;SDS011;62600;55.732;37.662;2022-08-30T15:46:28;11.38;;;5.55;;
74243;SDS011;62600;55.732;37.662;2022-08-30T15:49:04;12.70;;;5.88;;
74243;SDS011;62600;55.732;37.662;2022-08-30T15:51:36;14.57;;;8.20;;
74243;SDS011;62600;55.732;37.662;2022-08-30T15:54:02;16.50;;;8.10;;
74243;SDS011;62600;55.732;37.662;2022-08-30T15:56:29;20.15;;;7.07;;
74243;SDS011;62600;55.732;37.662;2022-08-30T15:58:55;19.90;;;6.88;;
74243;SDS011;62600;55.732;37.662;2022-08-30T16:01:21;17.38;;;5.88;;
74243;SDS011;62600;55.732;37.662;2022-08-30T16:03:47;18.02;;;6.43;;
74243;SDS011;62600;55.732;37.662;2022-08-30T16:06:14;15.77;;;5.10;;
74243;SDS011;62600;55.732;37.662;2022-08-30T16:08:40;13.90;;;5.43;;
74243;SDS011;62600;55.732;37.662;2022-08-30T16:11:06;17.40;;;5.13;;
74243;SDS011;62600;55.732;37.662;2022-08-30T16:13:34;12.38;;;5.55;;
74243;SDS011;62600;55.732;37.662;2022-08-30T16:16:00;13.15;;;6.03;;
74243;SDS011;62600;55.732;37.662;2022-08-30T16:18:27;14.98;;;5.47;;
74243;SDS011;62600;55.732;37.662;2022-08-30T16:23:33;15.10;;;5.70;;
74243;SDS011;62600;55.732;37.662;2022-08-30T16:25:59;14.57;;;5.32;;
74243;SDS011;62600;55.732;37.662;2022-08-30T16:28:25;15.85;;;5.75;;
74243;SDS011;62600;55.732;37.662;2022-08-30T16:30:51;17.08;;;6.07;;
74243;SDS011;62600;55.732;37.662;2022-08-30T16:33:17;17.08;;;6.38;;
74243;SDS011;62600;55.732;37.662;2022-08-30T16:35:43;16.90;;;6.03;;
74243;SDS011;62600;55.732;37.662;2022-08-30T16:38:08;20.08;;;5.63;;
74243;SDS011;62600;55.732;37.662;2022-08-30T16:40:34;14.90;;;5.80;;
74243;SDS011;62600;55.732;37.662;2022-08-30T16:42:59;17.10;;;6.32;;
74243;SDS011;62600;55.732;37.662;2022-08-30T16:45:25;15.18;;;5.80;;
74243;SDS011;62600;55.732;37.662;2022-08-30T16:47:50;15.63;;;6.25;;
74243;SDS011;62600;55.732;37.662;2022-08-30T16:50:16;16.45;;;6.85;;
74243;SDS011;62600;55.732;37.662;2022-08-30T16:52:45;14.10;;;6.18;;
74243;SDS011;62600;55.732;37.662;2022-08-30T16:55:10;15.23;;;6.30;;
74243;SDS011;62600;55.732;37.662;2022-08-30T16:57:36;16.40;;;6.10;;
74243;SDS011;62600;55.732;37.662;2022-08-30T17:00:02;14.40;;;6.03;;
74243;SDS011;62600;55.732;37.662;2022-08-30T17:02:29;15.68;;;6.13;;
74243;SDS011;62600;55.732;37.662;2022-08-30T17:04:55;14.25;;;6.30;;
74243;SDS011;62600;55.732;37.662;2022-08-30T17:07:20;17.13;;;8.10;;
74243;SDS011;62600;55.732;37.662;2022-08-30T17:09:46;16.25;;;7.18;;
74243;SDS011;62600;55.732;37.662;2022-08-30T17:12:12;20.05;;;6.65;;
74243;SDS011;62600;55.732;37.662;2022-08-30T17:14:37;17.67;;;6.82;;
74243;SDS011;62600;55.732;37.662;2022-08-30T17:17:03;15.32;;;6.40;;
74243;SDS011;62600;55.732;37.662;2022-08-30T17:19:28;15.90;;;6.32;;
74243;SDS011;62600;55.732;37.662;2022-08-30T17:21:54;19.48;;;6.35;;
74243;SDS011;62600;55.732;37.662;2022-08-30T17:24:20;16.92;;;6.20;;
74243;SDS011;62600;55.732;37.662;2022-08-30T17:26:46;16.08;;;7.10;;